createdAt,value
2022-10-02T04:17:44.739Z,89.30
2022-10-02T04:20:34.158Z,89.27
2022-10-02T04:23:11.179Z,89.12
2022-10-02T04:25:42.737Z,89.76
2022-10-02T04:28:14.883Z,88.85
2022-10-02T04:30:41.774Z,88.70
2022-10-02T04:33:19.508Z,88.42
2022-10-02T04:36:12.745Z,87.90
2022-10-02T04:38:51.261Z,87.97
2022-10-02T04:41:29.409Z,88.08
2022-10-02T04:44:23.177Z,87.93
2022-10-02T04:47:19.042Z,89.13
2022-10-02T04:50:16.054Z,89.61
2022-10-02T04:53:12.466Z,90.63
2022-10-02T04:56:21.175Z,90.23
2022-10-02T04:59:02.601Z,89.98
2022-10-02T05:01:37.664Z,89.41
2022-10-02T05:04:41.933Z,90.47
2022-10-02T05:07:22.606Z,92.10
2022-10-02T05:10:15.705Z,93.23
2022-10-02T05:13:14.351Z,93.64
2022-10-02T05:15:53.133Z,94.72
2022-10-02T05:18:50.684Z,95.40
2022-10-02T05:21:43.733Z,95.42
2022-10-02T05:24:37.889Z,94.90
2022-10-02T05:27:38.479Z,94.51
2022-10-02T05:30:12.051Z,93.83
2022-10-02T05:33:15.842Z,94.25
2022-10-02T05:35:48.177Z,94.40
2022-10-02T05:38:38.745Z,93.48
2022-10-02T05:41:30.372Z,93.42
2022-10-02T05:44:28.197Z,93.99
2022-10-02T05:47:05.870Z,94.14
2022-10-02T05:49:44.648Z,94.03
2022-10-02T05:52:19.719Z,93.17
2022-10-02T05:54:57.029Z,93.18
2022-10-02T05:57:33.123Z,93.69
2022-10-02T06:00:16.857Z,93.50
2022-10-02T06:02:56.740Z,93.86
2022-10-02T06:05:55.159Z,93.60
2022-10-02T06:08:35.725Z,94.07
2022-10-02T06:11:17.142Z,94.69
2022-10-02T06:13:51.600Z,94.91
2022-10-02T06:16:34.763Z,94.90
2022-10-02T06:19:13.262Z,95.49
2022-10-02T06:21:50.971Z,96.01
2022-10-02T06:24:25.054Z,95.29
2022-10-02T06:26:57.741Z,95.47
2022-10-02T06:29:48.721Z,96.34
2022-10-02T06:32:37.898Z,96.38
2022-10-02T06:35:12.213Z,97.01
2022-10-02T06:38:05.756Z,97.84
2022-10-02T06:40:43.691Z,97.67
2022-10-02T06:43:27.160Z,98.04
2022-10-02T06:46:08.806Z,97.47
2022-10-02T06:49:00.371Z,98.26
2022-10-02T06:51:48.896Z,98.41
2022-10-02T06:54:24.307Z,98.94
2022-10-02T06:57:14.697Z,98.13
2022-10-02T07:00:00.148Z,97.65
2022-10-02T07:02:32.702Z,97.99
2022-10-02T07:05:21.096Z,97.81
2022-10-02T07:08:18.659Z,98.31
2022-10-02T07:11:01.616Z,98.78
2022-10-02T07:14:07.002Z,98.63
2022-10-02T07:16:57.641Z,98.46
2022-10-02T07:19:43.961Z,98.69
2022-10-02T07:22:45.002Z,98.84
2022-10-02T07:25:30.546Z,98.89
2022-10-02T07:28:10.622Z,99.27
2022-10-02T07:30:45.814Z,99.11
2022-10-02T07:33:19.504Z,98.90
2022-10-02T07:35:59.326Z,98.74
2022-10-02T07:38:44.457Z,98.59
2022-10-02T07:41:52.077Z,98.74
2022-10-02T07:45:01.120Z,98.84
2022-10-02T07:48:40.004Z,98.51
2022-10-02T07:52:03.125Z,99.12
2022-10-02T07:54:49.123Z,99.14
2022-10-02T07:57:23.932Z,99.50
2022-10-02T08:00:18.911Z,99.51
2022-10-02T08:03:01.372Z,99.50
2022-10-02T08:05:40.575Z,99.09
2022-10-02T08:08:14.387Z,99.42
2022-10-02T08:10:43.637Z,99.24
2022-10-02T08:13:20.766Z,99.22
2022-10-02T08:15:53.589Z,98.81
2022-10-02T08:18:35.333Z,98.19
2022-10-02T08:21:05.878Z,99.16
2022-10-02T08:24:41.670Z,99.58
2022-10-02T08:27:12.893Z,98.74
2022-10-02T08:29:45.128Z,99.60
2022-10-02T08:32:12.709Z,100.00
2022-10-02T08:34:40.804Z,99.06
2022-10-02T08:37:35.015Z,99.97
2022-10-02T08:40:25.719Z,100.00
2022-10-02T08:43:32.555Z,99.39
2022-10-02T08:46:19.205Z,99.89
2022-10-02T08:49:09.351Z,98.81
2022-10-02T08:52:06.752Z,98.42
2022-10-02T08:54:54.848Z,98.13
2022-10-02T08:57:38.166Z,99.38
2022-10-02T09:00:30.663Z,98.84
2022-10-02T09:03:31.428Z,98.79
2022-10-02T09:06:16.244Z,98.00
2022-10-02T09:09:17.706Z,97.89
2022-10-02T09:12:40.776Z,98.81
2022-10-02T09:16:15.272Z,98.65
2022-10-02T09:19:25.339Z,97.96
2022-10-02T09:21:56.246Z,97.82
2022-10-02T09:24:56.050Z,98.75
2022-10-02T09:27:36.475Z,99.21
2022-10-02T09:30:03.014Z,97.76
2022-10-02T09:32:59.224Z,98.00
2022-10-02T09:35:50.702Z,98.42
2022-10-02T09:39:27.569Z,98.57
2022-10-02T09:42:26.526Z,99.64
2022-10-02T09:45:22.502Z,99.75
2022-10-02T09:48:11.855Z,100.00
2022-10-02T09:50:44.232Z,99.44
2022-10-02T09:53:44.500Z,98.72
2022-10-02T09:56:40.977Z,100.00
2022-10-02T09:59:29.596Z,99.41
2022-10-02T10:06:24.086Z,99.19
2022-10-02T10:09:00.453Z,99.95
2022-10-02T10:11:44.648Z,99.77
2022-10-02T10:14:30.498Z,99.75
2022-10-02T10:17:13.444Z,100.00
2022-10-02T10:19:54.684Z,100.00
2022-10-02T10:22:43.177Z,100.00
2022-10-02T10:25:54.773Z,99.45
2022-10-02T10:28:45.088Z,99.15
2022-10-02T10:31:42.423Z,98.46
2022-10-02T10:34:25.452Z,97.67
2022-10-02T10:37:23.923Z,97.93
2022-10-02T10:40:28.673Z,97.64
2022-10-02T10:43:13.276Z,98.35
2022-10-02T10:45:54.066Z,97.23
2022-10-02T10:49:09.715Z,96.87
2022-10-02T10:51:45.858Z,97.67
2022-10-02T10:54:48.353Z,96.76
2022-10-02T10:57:42.788Z,96.63
2022-10-02T11:00:09.200Z,96.86
2022-10-02T11:03:11.062Z,97.85
2022-10-02T11:05:59.307Z,97.72
2022-10-02T11:08:54.284Z,99.15
2022-10-02T11:11:57.589Z,98.47
2022-10-02T11:14:33.372Z,97.72
2022-10-02T11:17:13.267Z,98.56
2022-10-02T11:19:59.977Z,98.52
2022-10-02T11:22:44.587Z,98.23
2022-10-02T11:25:14.635Z,98.00
2022-10-02T11:28:06.660Z,97.24
2022-10-02T11:31:00.554Z,96.96
2022-10-02T11:33:33.949Z,97.05
2022-10-02T11:36:24.563Z,97.15
2022-10-02T11:39:14.278Z,97.00
2022-10-02T11:41:50.112Z,97.23
2022-10-02T11:45:02.659Z,96.80
2022-10-02T11:47:57.375Z,96.23
2022-10-02T11:50:45.724Z,96.65
2022-10-02T11:53:29.311Z,97.51
2022-10-02T11:56:12.747Z,96.78
2022-10-02T11:59:23.039Z,96.59
2022-10-02T12:02:07.839Z,95.74
2022-10-02T12:05:10.782Z,96.64
2022-10-02T12:08:08.131Z,95.93
2022-10-02T12:10:48.427Z,96.76
2022-10-02T12:13:20.966Z,95.55
2022-10-02T12:16:03.538Z,95.35
2022-10-02T12:18:51.233Z,95.61
2022-10-02T12:22:21.412Z,96.01
2022-10-02T12:25:15.623Z,96.33
2022-10-02T12:27:51.104Z,95.54
2022-10-02T12:30:25.795Z,94.96
2022-10-02T12:33:14.690Z,94.72
2022-10-02T12:35:57.903Z,95.04
2022-10-02T12:38:47.632Z,95.06
2022-10-02T12:41:33.838Z,94.31
2022-10-02T12:44:16.922Z,92.63
2022-10-02T12:46:46.341Z,92.75
2022-10-02T12:49:38.756Z,93.51
2022-10-02T12:52:32.666Z,94.25
2022-10-02T12:55:40.081Z,94.19
2022-10-02T12:58:15.401Z,95.37
2022-10-02T13:00:53.005Z,94.87
2022-10-02T13:03:48.130Z,95.14
2022-10-02T13:06:41.530Z,94.81
2022-10-02T13:09:29.869Z,94.22
2022-10-02T13:12:09.441Z,94.80
2022-10-02T13:15:16.495Z,93.39
2022-10-02T13:17:46.167Z,94.77
2022-10-02T13:20:43.759Z,94.68
2022-10-02T13:23:31.046Z,95.04
2022-10-02T13:26:29.799Z,94.66
2022-10-02T13:29:24.412Z,95.47
2022-10-02T13:32:09.781Z,95.14
2022-10-02T13:34:54.428Z,95.49
2022-10-02T13:37:39.106Z,95.69
2022-10-02T13:40:29.428Z,95.51
2022-10-02T13:43:05.922Z,95.58
2022-10-02T13:45:42.531Z,94.73
2022-10-02T13:48:31.324Z,93.81
2022-10-02T13:51:21.893Z,93.97
2022-10-02T13:53:54.258Z,94.45
2022-10-02T13:56:28.755Z,94.20
2022-10-02T13:59:14.160Z,93.48
2022-10-02T14:01:49.671Z,95.08
2022-10-02T14:04:43.676Z,96.12
2022-10-02T14:07:30.270Z,95.54
2022-10-02T14:10:17.278Z,94.48
2022-10-02T14:12:55.276Z,94.72
2022-10-02T14:15:30.385Z,93.36
2022-10-02T14:18:14.875Z,94.19
2022-10-02T14:20:49.124Z,93.62
2022-10-02T14:23:39.504Z,93.01
2022-10-02T14:26:14.979Z,92.86
2022-10-02T14:29:08.553Z,92.22
2022-10-02T14:32:26.319Z,90.67
2022-10-02T14:35:09.715Z,89.95
2022-10-02T14:37:55.233Z,90.42
2022-10-02T14:40:24.429Z,89.81
2022-10-02T14:43:29.114Z,89.87
2022-10-02T14:46:11.433Z,90.07
2022-10-02T14:49:00.068Z,88.95
2022-10-02T14:51:49.668Z,88.86
2022-10-02T14:54:52.997Z,88.23
2022-10-02T14:57:49.824Z,88.32
2022-10-02T15:00:19.716Z,88.25
2022-10-02T15:03:02.089Z,88.42
2022-10-02T15:06:05.109Z,88.34
2022-10-02T15:08:49.954Z,87.32
2022-10-02T15:11:32.228Z,87.18
2022-10-02T15:14:09.056Z,87.08
2022-10-02T15:17:02.695Z,87.51
2022-10-02T15:20:36.083Z,88.25
2022-10-02T15:23:06.734Z,87.56
2022-10-02T15:26:01.827Z,86.98
2022-10-02T15:28:47.023Z,87.18
2022-10-02T15:31:32.529Z,88.55
2022-10-02T15:34:12.831Z,87.17
2022-10-02T15:37:11.568Z,87.78
2022-10-02T15:39:44.136Z,87.51
2022-10-02T15:42:27.501Z,88.54
2022-10-02T15:45:20.603Z,88.86
2022-10-02T15:48:02.777Z,89.08
2022-10-02T15:51:00.442Z,88.79
2022-10-02T15:53:51.365Z,88.50
2022-10-02T15:56:17.850Z,88.51
2022-10-02T15:59:26.099Z,89.55
2022-10-02T16:02:17.100Z,89.12
2022-10-02T16:05:05.634Z,88.43
2022-10-02T16:08:00.639Z,89.16
2022-10-02T16:10:37.584Z,88.54
2022-10-02T16:13:26.093Z,89.47
2022-10-02T16:15:55.611Z,90.58
2022-10-02T16:18:33.327Z,90.72
2022-10-02T16:21:12.596Z,90.00
2022-10-02T16:24:26.364Z,89.32
2022-10-02T16:27:19.189Z,88.52
2022-10-02T16:30:11.096Z,88.09
2022-10-02T16:33:00.890Z,89.31
2022-10-02T16:35:50.928Z,90.19
2022-10-02T16:38:51.985Z,89.73
2022-10-02T16:41:28.369Z,89.02
2022-10-02T16:44:18.032Z,88.63
2022-10-02T16:46:50.906Z,88.64
2022-10-02T16:49:45.521Z,87.97
2022-10-02T16:52:22.520Z,87.40
2022-10-02T16:55:47.231Z,86.36
2022-10-02T16:58:40.183Z,86.20
2022-10-02T17:01:49.578Z,87.42
2022-10-02T17:04:52.495Z,87.86
2022-10-02T17:07:41.312Z,88.31
2022-10-02T17:10:19.839Z,87.49
2022-10-02T17:12:58.385Z,87.89
2022-10-02T17:15:46.831Z,87.58
2022-10-02T17:18:37.860Z,87.81
2022-10-02T17:21:46.236Z,89.39
2022-10-02T17:24:30.928Z,89.30
2022-10-02T17:27:18.734Z,87.94
2022-10-02T17:30:12.757Z,87.45
2022-10-02T17:32:51.398Z,86.06
2022-10-02T17:35:24.039Z,85.38
2022-10-02T17:38:06.387Z,85.22
2022-10-02T17:40:45.867Z,85.06
2022-10-02T17:43:31.314Z,85.09
2022-10-02T17:46:19.704Z,85.00
2022-10-02T17:48:58.466Z,86.00
2022-10-02T17:51:57.975Z,85.85
2022-10-02T17:54:58.408Z,86.04
2022-10-02T17:57:54.431Z,86.12
2022-10-02T18:00:24.697Z,86.36
2022-10-02T18:03:36.732Z,86.50
2022-10-02T18:06:17.043Z,85.69
2022-10-02T18:09:02.664Z,85.98
2022-10-02T18:11:52.640Z,86.27
2022-10-02T18:14:57.392Z,86.58
2022-10-02T18:17:29.809Z,86.94
2022-10-02T18:20:18.658Z,86.99
2022-10-02T18:22:58.407Z,87.35
2022-10-02T18:25:55.718Z,87.83
2022-10-02T18:28:53.403Z,87.57
2022-10-02T18:31:55.233Z,87.05
2022-10-02T18:34:43.976Z,86.63
2022-10-02T18:37:31.327Z,86.09
2022-10-02T18:40:17.737Z,86.03
2022-10-02T18:43:21.924Z,85.55
2022-10-02T18:46:00.020Z,85.56
2022-10-02T18:48:48.087Z,85.51
2022-10-02T18:51:56.120Z,86.00
2022-10-02T18:54:51.825Z,86.72
2022-10-02T18:57:56.186Z,86.53
2022-10-02T19:00:26.044Z,87.30
2022-10-02T19:03:20.331Z,86.37
2022-10-02T19:06:08.517Z,86.11
2022-10-02T19:09:06.903Z,86.98
2022-10-02T19:11:42.895Z,86.50
2022-10-02T19:14:25.762Z,86.09
2022-10-02T19:17:02.005Z,85.82
2022-10-02T19:19:29.890Z,85.70
2022-10-02T19:22:01.199Z,86.41
2022-10-02T19:24:37.988Z,85.90
2022-10-02T19:27:08.421Z,86.72
2022-10-02T19:29:50.319Z,86.69
2022-10-02T19:32:31.188Z,86.46
2022-10-02T19:35:18.307Z,85.86
2022-10-02T19:37:51.655Z,85.48
2022-10-02T19:40:24.678Z,85.90
2022-10-02T19:42:55.962Z,85.72
2022-10-02T19:45:29.283Z,85.42
2022-10-02T19:48:09.078Z,86.16
2022-10-02T19:50:41.949Z,85.61
2022-10-02T19:53:40.994Z,85.56
2022-10-02T19:56:24.469Z,86.28
2022-10-02T19:58:58.292Z,86.75
2022-10-02T20:01:34.398Z,86.35
2022-10-02T20:04:04.837Z,86.37
2022-10-02T20:06:37.579Z,86.10
2022-10-02T20:09:19.874Z,85.62
2022-10-02T20:11:50.157Z,85.61
2022-10-02T20:14:32.457Z,85.27
2022-10-02T20:17:12.529Z,85.05
2022-10-02T20:19:42.810Z,84.07
2022-10-02T20:22:30.448Z,83.66
2022-10-02T20:25:46.417Z,84.11
2022-10-02T20:28:20.653Z,84.72
2022-10-02T20:30:56.391Z,86.01
2022-10-02T20:33:45.335Z,86.78
2022-10-02T20:36:26.639Z,88.34
2022-10-02T20:39:00.726Z,88.14
2022-10-02T20:41:32.130Z,89.92
2022-10-02T20:44:04.416Z,90.49
2022-10-02T20:46:35.708Z,90.20
2022-10-02T20:49:42.470Z,89.82
2022-10-02T20:52:46.200Z,89.06
2022-10-02T20:55:49.352Z,88.97
2022-10-02T20:58:43.418Z,88.94
2022-10-02T21:01:31.630Z,87.81
2022-10-02T21:04:13.465Z,87.88
2022-10-02T21:07:05.796Z,87.86
2022-10-02T21:09:52.090Z,88.36
2022-10-02T21:12:39.967Z,87.84
2022-10-02T21:15:31.481Z,87.78
2022-10-02T21:17:58.026Z,87.41
2022-10-02T21:20:59.906Z,87.36
2022-10-02T21:24:01.272Z,87.17
2022-10-02T21:26:36.557Z,86.64
2022-10-02T21:29:19.388Z,87.03
2022-10-02T21:32:07.669Z,87.22
2022-10-02T21:34:41.640Z,86.92
2022-10-02T21:37:26.446Z,86.81
2022-10-02T21:40:47.417Z,86.76
2022-10-02T21:43:28.779Z,86.81
2022-10-02T21:46:29.644Z,86.78
2022-10-02T21:49:17.300Z,86.71
2022-10-02T21:52:02.070Z,85.83
2022-10-02T21:54:40.496Z,85.96
2022-10-02T21:57:19.142Z,86.14
